Content
SEND FEEDBACK

Daily
Averages
Monthly
Summary
United States of America

ARCADIA WILDERNESS PARK, CALIFORNIA


Home > North America > United States > California
Elevation: 622 meters     Latitude: 34 12N     Longitude: 118 01W

WEATHER
 
SELECT A DAY
Number of Records: 135,196;   Date Range: 1/1/95 - 12/16/14
 
SHARE

PRINT THIS DATA

[ ← Previous Day ]
WEATHER ALMANAC - 13 FEBRUARY, 2013
[ Next Day → ]
[ °F ]   °C
Weather ElementAverageHighLow
Temperature6.6 °C13 °C (11:00 am) (7:45 am)
Dewpoint-9.2 °C-3 °C (1:00 pm) (7:00 pm)
Humidity31.5 %42 % (8:00 pm)23 % (6:45 am)
Wind Speed5.3 km/h13 km/h (10:00 pm)
Wind Gust16.7 km/h (10:00 pm)
Weather ElementAverage
Wind DirectionS (176.5 °)

Weather ElementTotal
Precipitation---
Heating Degree Days20.7 (Base 18.3)
Averaged from 42 records on 13 February, 2013
WEATHER CONDITIONS BREAKOUT
WIND DIRECTION BREAKOUT
WEATHER BY HOUR - 13 FEBRUARY, 2013
[ °F ]   °C
Local TimeTemperatureDewpointHumidityBarometerVisibilityWind DirectionWind SpeedGust SpeedPrecipitationEventsConditions
12:30 AM2 °C-12 °C35 %NNE (20°)3.7 km/h7.4 km/h
1:00 AM2 °C-12 °C35 %NW (315°)5.6 km/h9.3 km/h
1:45 AM2 °C-13 °C33 %West (280°)1.9 km/h1.9 km/h
2:15 AM3 °C-13 °C30 %SW (235°)3.7 km/h7.4 km/h
3:00 AM2 °C-12 °C35 %NNE (20°)5.6 km/h9.3 km/h
3:30 AM2 °C-13 °C33 %SW (215°)1.9 km/h3.7 km/h
4:00 AM3 °C-14 °C28 %NE (55°)7.4 km/h11.1 km/h
4:30 AM4 °C-14 °C26 %NE (40°)5.6 km/h13 km/h
5:15 AM3 °C-15 °C26 %SSE (155°)5.6 km/h5.6 km/h
6:00 AM3 °C-15 °C26 %SSW (200°)3.7 km/h3.7 km/h
6:45 AM5 °C-15 °C23 %NE (55°)3.7 km/h5.6 km/h
7:15 AM4 °C-14 °C26 %East (85°)7.4 km/h9.3 km/h
7:45 AM-17.8 °C-17.8 °CCalm (235°)0 km/h
8:15 AM9 °C-10 °C25 %NE (35°)3.7 km/h7.4 km/h
9:00 AM10 °C-10 °C24 %NE (50°)3.7 km/h5.6 km/h
9:30 AM10 °C-9 °C26 %North (360°)3.7 km/h5.6 km/h
10:00 AM12 °C-8 °C24 %West (270°)1.9 km/h3.7 km/h
10:30 AM12 °C-7 °C26 %WSW (245°)3.7 km/h7.4 km/h
11:00 AM13 °C-6 °C26 %WSW (250°)5.6 km/h7.4 km/h
11:30 AM12 °C-6 °C28 %WSW (240°)5.6 km/h9.3 km/h
12:00 PM12 °C-6 °C28 %SW (225°)7.4 km/h11.1 km/h
1:00 PM12 °C-3 °C35 %WSW (240°)7.4 km/h13 km/h
1:30 PM13 °C-3 °C33 %SW (235°)7.4 km/h11.1 km/h
2:00 PM13 °C-4 °C31 %SW (235°)9.3 km/h13 km/h
2:45 PM12 °C-4 °C33 %WSW (245°)5.6 km/h9.3 km/h
3:30 PM11 °C-5 °C33 %SW (235°)9.3 km/h9.3 km/h
4:00 PM12 °C-5 °C30 %North (355°)1.9 km/h3.7 km/h
4:30 PM10 °C-6 °C32 %NNW (335°)5.6 km/h9.3 km/h
5:00 PM10 °C-5 °C35 %NW (325°)5.6 km/h7.4 km/h
5:30 PM8 °C-7 °C34 %West (280°)1.9 km/h5.6 km/h
6:00 PM6 °C-8 °C36 %SE (125°)1.9 km/h3.7 km/h
6:30 PM5 °C-9 °C36 %SSE (155°)1.9 km/h5.6 km/h
7:00 PM5 °C-10 °C33 %SSW (205°)1.9 km/h3.7 km/h
7:30 PM6 °C-8 °C36 %NNW (330°)7.4 km/h9.3 km/h
8:00 PM5 °C-7 °C42 %North
8:30 PM5 °C-9 °C36 %NE (35°)7.4 km/h7.4 km/h
9:00 PM6 °C-8 °C36 %NE (40°)7.4 km/h7.4 km/h
9:30 PM6 °C-8 °C36 %NE (45°)9.3 km/h13 km/h
10:00 PM5 °C-8 °C39 %NE (40°)13 km/h16.7 km/h
10:30 PM6 °C-8 °C36 %NE (40°)7.4 km/h9.3 km/h
11:00 PM6 °C-9 °C34 %NNE (20°)7.4 km/h9.3 km/h
11:30 PM5 °C-10 °C33 %NW (310°)3.7 km/h5.6 km/h
Hourly data recorded from KMWS, located 0 kilometers away from Arcadia Wilderness Park, California







STORIES FROM OUR PARTNERS